sensor_id;sensor_type;location;lat;lon;timestamp;P1;durP1;ratioP1;P2;durP2;ratioP2
56343;SDS011;42245;42.058;24.700;2023-04-03T00:02:03;1.40;;;1.10;;
56343;SDS011;42245;42.058;24.700;2023-04-03T00:04:28;2.08;;;1.38;;
56343;SDS011;42245;42.058;24.700;2023-04-03T00:06:53;1.67;;;1.10;;
56343;SDS011;42245;42.058;24.700;2023-04-03T00:09:19;1.92;;;1.20;;
56343;SDS011;42245;42.058;24.700;2023-04-03T00:11:45;1.73;;;1.10;;
56343;SDS011;42245;42.058;24.700;2023-04-03T00:14:10;2.33;;;1.08;;
56343;SDS011;42245;42.058;24.700;2023-04-03T00:16:36;1.05;;;0.90;;
56343;SDS011;42245;42.058;24.700;2023-04-03T00:19:01;2.70;;;1.08;;
56343;SDS011;42245;42.058;24.700;2023-04-03T00:21:27;3.15;;;1.30;;
56343;SDS011;42245;42.058;24.700;2023-04-03T00:23:52;1.65;;;1.20;;
56343;SDS011;42245;42.058;24.700;2023-04-03T00:26:18;1.70;;;1.40;;
56343;SDS011;42245;42.058;24.700;2023-04-03T00:28:43;1.25;;;0.98;;
56343;SDS011;42245;42.058;24.700;2023-04-03T00:31:08;4.90;;;1.15;;
56343;SDS011;42245;42.058;24.700;2023-04-03T00:33:34;4.03;;;1.30;;
56343;SDS011;42245;42.058;24.700;2023-04-03T00:36:04;1.15;;;1.02;;
56343;SDS011;42245;42.058;24.700;2023-04-03T00:38:31;1.73;;;1.20;;
56343;SDS011;42245;42.058;24.700;2023-04-03T00:40:56;2.88;;;1.10;;
56343;SDS011;42245;42.058;24.700;2023-04-03T00:43:23;1.30;;;1.10;;
56343;SDS011;42245;42.058;24.700;2023-04-03T00:45:50;1.85;;;1.10;;
56343;SDS011;42245;42.058;24.700;2023-04-03T00:48:18;1.20;;;1.10;;
56343;SDS011;42245;42.058;24.700;2023-04-03T00:50:46;1.98;;;1.20;;
56343;SDS011;42245;42.058;24.700;2023-04-03T00:53:12;2.63;;;0.98;;
56343;SDS011;42245;42.058;24.700;2023-04-03T00:55:42;1.90;;;1.27;;
56343;SDS011;42245;42.058;24.700;2023-04-03T00:58:08;1.75;;;1.20;;
56343;SDS011;42245;42.058;24.700;2023-04-03T01:00:35;2.80;;;1.20;;
56343;SDS011;42245;42.058;24.700;2023-04-03T01:03:02;2.58;;;1.40;;
56343;SDS011;42245;42.058;24.700;2023-04-03T01:05:28;2.83;;;1.00;;
56343;SDS011;42245;42.058;24.700;2023-04-03T01:07:54;2.13;;;1.30;;
56343;SDS011;42245;42.058;24.700;2023-04-03T01:10:20;1.45;;;1.20;;
56343;SDS011;42245;42.058;24.700;2023-04-03T01:12:47;1.10;;;1.00;;
56343;SDS011;42245;42.058;24.700;2023-04-03T01:17:44;2.05;;;1.20;;
56343;SDS011;42245;42.058;24.700;2023-04-03T01:28:07;2.13;;;1.30;;
56343;SDS011;42245;42.058;24.700;2023-04-03T01:30:36;1.38;;;1.17;;
56343;SDS011;42245;42.058;24.700;2023-04-03T01:33:06;1.17;;;1.08;;
56343;SDS011;42245;42.058;24.700;2023-04-03T01:35:32;1.38;;;1.17;;
56343;SDS011;42245;42.058;24.700;2023-04-03T01:37:57;1.70;;;1.30;;
56343;SDS011;42245;42.058;24.700;2023-04-03T01:40:23;1.98;;;1.27;;
56343;SDS011;42245;42.058;24.700;2023-04-03T01:42:48;1.88;;;1.10;;
56343;SDS011;42245;42.058;24.700;2023-04-03T01:45:14;2.45;;;1.25;;
56343;SDS011;42245;42.058;24.700;2023-04-03T01:47:39;1.15;;;1.05;;
56343;SDS011;42245;42.058;24.700;2023-04-03T01:50:05;1.30;;;1.10;;
56343;SDS011;42245;42.058;24.700;2023-04-03T01:52:30;1.85;;;1.30;;
56343;SDS011;42245;42.058;24.700;2023-04-03T01:54:56;1.52;;;1.10;;
56343;SDS011;42245;42.058;24.700;2023-04-03T01:57:21;1.52;;;1.20;;
56343;SDS011;42245;42.058;24.700;2023-04-03T01:59:47;2.25;;;1.17;;
56343;SDS011;42245;42.058;24.700;2023-04-03T02:02:12;2.30;;;1.30;;
56343;SDS011;42245;42.058;24.700;2023-04-03T02:04:39;1.58;;;0.98;;
56343;SDS011;42245;42.058;24.700;2023-04-03T02:07:05;1.30;;;1.20;;
56343;SDS011;42245;42.058;24.700;2023-04-03T02:09:30;1.30;;;1.17;;
56343;SDS011;42245;42.058;24.700;2023-04-03T02:11:56;1.67;;;1.40;;
56343;SDS011;42245;42.058;24.700;2023-04-03T02:14:21;1.42;;;1.20;;
56343;SDS011;42245;42.058;24.700;2023-04-03T02:16:48;3.65;;;1.10;;
56343;SDS011;42245;42.058;24.700;2023-04-03T02:19:14;1.17;;;1.00;;
56343;SDS011;42245;42.058;24.700;2023-04-03T02:21:40;2.70;;;1.30;;
56343;SDS011;42245;42.058;24.700;2023-04-03T02:24:05;1.27;;;1.10;;
56343;SDS011;42245;42.058;24.700;2023-04-03T02:26:31;2.70;;;1.10;;
56343;SDS011;42245;42.058;24.700;2023-04-03T02:28:56;1.45;;;1.10;;
56343;SDS011;42245;42.058;24.700;2023-04-03T02:31:22;3.30;;;1.10;;
56343;SDS011;42245;42.058;24.700;2023-04-03T02:33:47;1.35;;;1.00;;
56343;SDS011;42245;42.058;24.700;2023-04-03T02:36:13;1.38;;;1.00;;
56343;SDS011;42245;42.058;24.700;2023-04-03T02:38:38;1.48;;;1.17;;
56343;SDS011;42245;42.058;24.700;2023-04-03T02:41:05;1.38;;;0.90;;
56343;SDS011;42245;42.058;24.700;2023-04-03T02:43:32;2.80;;;1.10;;
56343;SDS011;42245;42.058;24.700;2023-04-03T02:45:57;3.30;;;1.30;;
56343;SDS011;42245;42.058;24.700;2023-04-03T02:48:23;1.92;;;1.15;;
56343;SDS011;42245;42.058;24.700;2023-04-03T02:50:49;2.65;;;1.35;;
56343;SDS011;42245;42.058;24.700;2023-04-03T02:53:14;1.15;;;1.02;;
56343;SDS011;42245;42.058;24.700;2023-04-03T02:55:40;1.83;;;1.15;;
56343;SDS011;42245;42.058;24.700;2023-04-03T02:58:06;1.40;;;1.30;;
56343;SDS011;42245;42.058;24.700;2023-04-03T03:00:31;1.65;;;1.15;;
56343;SDS011;42245;42.058;24.700;2023-04-03T03:02:57;1.40;;;1.08;;
56343;SDS011;42245;42.058;24.700;2023-04-03T03:05:22;1.55;;;1.23;;
56343;SDS011;42245;42.058;24.700;2023-04-03T03:07:48;1.33;;;1.23;;
56343;SDS011;42245;42.058;24.700;2023-04-03T03:10:13;1.98;;;1.25;;
56343;SDS011;42245;42.058;24.700;2023-04-03T03:12:39;2.00;;;1.02;;
56343;SDS011;42245;42.058;24.700;2023-04-03T03:15:05;1.73;;;1.23;;
56343;SDS011;42245;42.058;24.700;2023-04-03T03:17:31;1.48;;;1.20;;
56343;SDS011;42245;42.058;24.700;2023-04-03T03:19:56;1.67;;;1.10;;
56343;SDS011;42245;42.058;24.700;2023-04-03T03:22:22;3.10;;;1.30;;
56343;SDS011;42245;42.058;24.700;2023-04-03T03:24:47;1.80;;;1.23;;
56343;SDS011;42245;42.058;24.700;2023-04-03T03:27:13;1.30;;;1.02;;
56343;SDS011;42245;42.058;24.700;2023-04-03T03:29:38;3.05;;;1.23;;
56343;SDS011;42245;42.058;24.700;2023-04-03T03:32:04;2.85;;;1.50;;
56343;SDS011;42245;42.058;24.700;2023-04-03T03:34:29;2.05;;;1.27;;
56343;SDS011;42245;42.058;24.700;2023-04-03T03:36:55;2.22;;;1.30;;
56343;SDS011;42245;42.058;24.700;2023-04-03T03:39:20;6.18;;;1.38;;
56343;SDS011;42245;42.058;24.700;2023-04-03T03:41:46;1.85;;;1.38;;
56343;SDS011;42245;42.058;24.700;2023-04-03T03:44:12;1.65;;;1.30;;
56343;SDS011;42245;42.058;24.700;2023-04-03T03:46:37;2.60;;;1.45;;
56343;SDS011;42245;42.058;24.700;2023-04-03T03:49:03;1.90;;;1.30;;
56343;SDS011;42245;42.058;24.700;2023-04-03T03:51:28;2.30;;;1.20;;
56343;SDS011;42245;42.058;24.700;2023-04-03T03:53:54;1.58;;;1.23;;
56343;SDS011;42245;42.058;24.700;2023-04-03T03:56:19;6.63;;;1.23;;
56343;SDS011;42245;42.058;24.700;2023-04-03T03:58:45;3.75;;;1.15;;
56343;SDS011;42245;42.058;24.700;2023-04-03T04:01:10;5.07;;;1.65;;
56343;SDS011;42245;42.058;24.700;2023-04-03T04:03:36;1.63;;;1.30;;
56343;SDS011;42245;42.058;24.700;2023-04-03T04:06:02;4.35;;;1.20;;
56343;SDS011;42245;42.058;24.700;2023-04-03T04:08:27;5.78;;;1.30;;
56343;SDS011;42245;42.058;24.700;2023-04-03T04:10:53;2.30;;;1.30;;
56343;SDS011;42245;42.058;24.700;2023-04-03T04:13:18;1.90;;;1.27;;
56343;SDS011;42245;42.058;24.700;2023-04-03T04:15:44;2.47;;;1.40;;
56343;SDS011;42245;42.058;24.700;2023-04-03T04:18:09;1.45;;;1.00;;
56343;SDS011;42245;42.058;24.700;2023-04-03T04:20:35;2.05;;;1.27;;
56343;SDS011;42245;42.058;24.700;2023-04-03T04:23:00;1.40;;;1.10;;
56343;SDS011;42245;42.058;24.700;2023-04-03T04:25:26;2.42;;;1.30;;
56343;SDS011;42245;42.058;24.700;2023-04-03T04:27:51;1.27;;;1.17;;
56343;SDS011;42245;42.058;24.700;2023-04-03T04:30:17;2.17;;;1.23;;
56343;SDS011;42245;42.058;24.700;2023-04-03T04:32:42;1.48;;;1.10;;
56343;SDS011;42245;42.058;24.700;2023-04-03T04:35:08;1.63;;;0.95;;
56343;SDS011;42245;42.058;24.700;2023-04-03T04:37:33;3.55;;;1.50;;
56343;SDS011;42245;42.058;24.700;2023-04-03T04:39:59;1.80;;;1.20;;
56343;SDS011;42245;42.058;24.700;2023-04-03T04:42:24;6.88;;;1.30;;
56343;SDS011;42245;42.058;24.700;2023-04-03T04:44:50;2.72;;;1.30;;
56343;SDS011;42245;42.058;24.700;2023-04-03T04:47:16;1.77;;;1.10;;
56343;SDS011;42245;42.058;24.700;2023-04-03T04:49:41;3.63;;;1.17;;
56343;SDS011;42245;42.058;24.700;2023-04-03T04:52:07;4.70;;;1.30;;
56343;SDS011;42245;42.058;24.700;2023-04-03T04:54:32;5.38;;;1.23;;
56343;SDS011;42245;42.058;24.700;2023-04-03T04:56:58;6.07;;;1.20;;
56343;SDS011;42245;42.058;24.700;2023-04-03T04:59:23;2.38;;;1.00;;
56343;SDS011;42245;42.058;24.700;2023-04-03T05:01:49;3.05;;;1.20;;
56343;SDS011;42245;42.058;24.700;2023-04-03T05:04:14;3.40;;;1.67;;
56343;SDS011;42245;42.058;24.700;2023-04-03T05:06:40;2.92;;;1.38;;
56343;SDS011;42245;42.058;24.700;2023-04-03T05:09:05;8.68;;;1.38;;
56343;SDS011;42245;42.058;24.700;2023-04-03T05:11:31;3.33;;;1.20;;
56343;SDS011;42245;42.058;24.700;2023-04-03T05:13:56;1.40;;;1.08;;
56343;SDS011;42245;42.058;24.700;2023-04-03T05:16:22;7.57;;;1.25;;
56343;SDS011;42245;42.058;24.700;2023-04-03T05:18:47;3.40;;;2.15;;
56343;SDS011;42245;42.058;24.700;2023-04-03T05:21:13;1.88;;;1.30;;
56343;SDS011;42245;42.058;24.700;2023-04-03T05:23:38;1.27;;;1.10;;
56343;SDS011;42245;42.058;24.700;2023-04-03T05:26:04;2.17;;;1.15;;
56343;SDS011;42245;42.058;24.700;2023-04-03T05:28:29;3.35;;;1.10;;
56343;SDS011;42245;42.058;24.700;2023-04-03T05:30:56;1.30;;;1.10;;
56343;SDS011;42245;42.058;24.700;2023-04-03T05:33:22;3.20;;;1.30;;
56343;SDS011;42245;42.058;24.700;2023-04-03T05:35:48;2.67;;;1.30;;
56343;SDS011;42245;42.058;24.700;2023-04-03T05:38:14;8.63;;;6.30;;
56343;SDS011;42245;42.058;24.700;2023-04-03T05:40:40;9.77;;;6.18;;
56343;SDS011;42245;42.058;24.700;2023-04-03T05:43:05;12.82;;;5.93;;
56343;SDS011;42245;42.058;24.700;2023-04-03T05:45:31;7.93;;;4.57;;
56343;SDS011;42245;42.058;24.700;2023-04-03T05:47:56;5.80;;;3.80;;
56343;SDS011;42245;42.058;24.700;2023-04-03T05:50:21;8.32;;;4.57;;
56343;SDS011;42245;42.058;24.700;2023-04-03T05:52:47;11.27;;;5.40;;
56343;SDS011;42245;42.058;24.700;2023-04-03T05:55:14;14.20;;;5.30;;
56343;SDS011;42245;42.058;24.700;2023-04-03T05:57:40;11.38;;;4.25;;
56343;SDS011;42245;42.058;24.700;2023-04-03T06:00:07;18.65;;;4.45;;
56343;SDS011;42245;42.058;24.700;2023-04-03T06:02:34;5.55;;;3.70;;
56343;SDS011;42245;42.058;24.700;2023-04-03T06:05:01;19.80;;;7.80;;
56343;SDS011;42245;42.058;24.700;2023-04-03T06:07:27;26.35;;;14.30;;
56343;SDS011;42245;42.058;24.700;2023-04-03T06:09:54;16.45;;;8.82;;
56343;SDS011;42245;42.058;24.700;2023-04-03T06:12:21;10.68;;;6.03;;
56343;SDS011;42245;42.058;24.700;2023-04-03T06:14:47;9.95;;;4.40;;
56343;SDS011;42245;42.058;24.700;2023-04-03T06:17:13;9.60;;;4.25;;
56343;SDS011;42245;42.058;24.700;2023-04-03T06:19:39;6.63;;;4.15;;
56343;SDS011;42245;42.058;24.700;2023-04-03T06:22:05;13.80;;;5.18;;
56343;SDS011;42245;42.058;24.700;2023-04-03T06:24:31;36.30;;;18.65;;
56343;SDS011;42245;42.058;24.700;2023-04-03T06:26:57;24.05;;;11.73;;
56343;SDS011;42245;42.058;24.700;2023-04-03T06:29:23;17.92;;;9.38;;
56343;SDS011;42245;42.058;24.700;2023-04-03T06:31:49;22.15;;;12.27;;
56343;SDS011;42245;42.058;24.700;2023-04-03T06:34:15;16.98;;;12.00;;
56343;SDS011;42245;42.058;24.700;2023-04-03T06:36:42;23.13;;;15.23;;
56343;SDS011;42245;42.058;24.700;2023-04-03T06:39:08;22.77;;;12.32;;
56343;SDS011;42245;42.058;24.700;2023-04-03T06:41:37;21.85;;;12.25;;
56343;SDS011;42245;42.058;24.700;2023-04-03T06:44:09;20.90;;;11.65;;
56343;SDS011;42245;42.058;24.700;2023-04-03T06:46:36;27.58;;;11.32;;
56343;SDS011;42245;42.058;24.700;2023-04-03T06:49:03;14.07;;;7.35;;
56343;SDS011;42245;42.058;24.700;2023-04-03T06:51:29;18.88;;;8.90;;
56343;SDS011;42245;42.058;24.700;2023-04-03T06:53:56;24.73;;;13.98;;
56343;SDS011;42245;42.058;24.700;2023-04-03T06:56:23;29.52;;;16.70;;
56343;SDS011;42245;42.058;24.700;2023-04-03T06:58:50;15.30;;;7.22;;
56343;SDS011;42245;42.058;24.700;2023-04-03T07:01:16;20.17;;;12.75;;
56343;SDS011;42245;42.058;24.700;2023-04-03T07:03:44;18.08;;;6.93;;
56343;SDS011;42245;42.058;24.700;2023-04-03T07:06:11;11.68;;;7.43;;
56343;SDS011;42245;42.058;24.700;2023-04-03T07:08:37;10.15;;;6.70;;
56343;SDS011;42245;42.058;24.700;2023-04-03T07:11:03;16.10;;;9.38;;
56343;SDS011;42245;42.058;24.700;2023-04-03T07:13:29;13.35;;;9.18;;
56343;SDS011;42245;42.058;24.700;2023-04-03T07:15:55;15.50;;;8.80;;
56343;SDS011;42245;42.058;24.700;2023-04-03T07:18:21;12.88;;;8.02;;
56343;SDS011;42245;42.058;24.700;2023-04-03T07:20:47;15.88;;;8.43;;
56343;SDS011;42245;42.058;24.700;2023-04-03T07:23:12;14.07;;;8.07;;
56343;SDS011;42245;42.058;24.700;2023-04-03T07:25:48;14.82;;;8.40;;
56343;SDS011;42245;42.058;24.700;2023-04-03T07:28:15;15.02;;;8.02;;
56343;SDS011;42245;42.058;24.700;2023-04-03T07:33:38;15.52;;;9.02;;
56343;SDS011;42245;42.058;24.700;2023-04-03T07:36:05;16.33;;;8.70;;
56343;SDS011;42245;42.058;24.700;2023-04-03T07:38:32;18.25;;;10.27;;
56343;SDS011;42245;42.058;24.700;2023-04-03T07:40:58;19.90;;;10.20;;
56343;SDS011;42245;42.058;24.700;2023-04-03T07:43:23;20.23;;;10.60;;
56343;SDS011;42245;42.058;24.700;2023-04-03T07:45:50;27.27;;;11.20;;
56343;SDS011;42245;42.058;24.700;2023-04-03T07:48:16;24.90;;;13.90;;
56343;SDS011;42245;42.058;24.700;2023-04-03T07:50:43;27.20;;;15.02;;
56343;SDS011;42245;42.058;24.700;2023-04-03T07:53:08;14.80;;;8.50;;
56343;SDS011;42245;42.058;24.700;2023-04-03T07:55:34;16.38;;;6.18;;
56343;SDS011;42245;42.058;24.700;2023-04-03T07:58:05;13.02;;;6.30;;
56343;SDS011;42245;42.058;24.700;2023-04-03T08:00:31;9.25;;;5.72;;
56343;SDS011;42245;42.058;24.700;2023-04-03T08:02:56;9.82;;;5.70;;
56343;SDS011;42245;42.058;24.700;2023-04-03T08:05:22;10.77;;;5.60;;
56343;SDS011;42245;42.058;24.700;2023-04-03T08:07:47;9.25;;;5.82;;
56343;SDS011;42245;42.058;24.700;2023-04-03T08:10:14;14.25;;;7.18;;
56343;SDS011;42245;42.058;24.700;2023-04-03T08:12:40;16.70;;;6.47;;
56343;SDS011;42245;42.058;24.700;2023-04-03T08:15:07;13.15;;;6.90;;
56343;SDS011;42245;42.058;24.700;2023-04-03T08:17:33;11.38;;;5.93;;
56343;SDS011;42245;42.058;24.700;2023-04-03T08:19:59;13.15;;;6.72;;
56343;SDS011;42245;42.058;24.700;2023-04-03T08:22:25;13.23;;;6.88;;
56343;SDS011;42245;42.058;24.700;2023-04-03T08:24:51;15.25;;;7.22;;
56343;SDS011;42245;42.058;24.700;2023-04-03T08:27:16;15.65;;;7.85;;
56343;SDS011;42245;42.058;24.700;2023-04-03T08:29:42;16.52;;;6.88;;
56343;SDS011;42245;42.058;24.700;2023-04-03T08:32:08;15.20;;;8.02;;
56343;SDS011;42245;42.058;24.700;2023-04-03T08:34:33;15.80;;;8.18;;
56343;SDS011;42245;42.058;24.700;2023-04-03T08:37:00;16.27;;;8.00;;
56343;SDS011;42245;42.058;24.700;2023-04-03T08:39:26;16.27;;;7.07;;
56343;SDS011;42245;42.058;24.700;2023-04-03T08:41:52;16.60;;;7.50;;
56343;SDS011;42245;42.058;24.700;2023-04-03T08:47:04;13.48;;;6.55;;
56343;SDS011;42245;42.058;24.700;2023-04-03T08:49:55;15.15;;;6.05;;
56343;SDS011;42245;42.058;24.700;2023-04-03T08:52:38;16.05;;;6.80;;
56343;SDS011;42245;42.058;24.700;2023-04-03T08:55:19;15.95;;;7.05;;
56343;SDS011;42245;42.058;24.700;2023-04-03T08:57:46;12.40;;;6.00;;
56343;SDS011;42245;42.058;24.700;2023-04-03T09:05:26;15.88;;;7.70;;
56343;SDS011;42245;42.058;24.700;2023-04-03T09:10:37;23.73;;;12.48;;
56343;SDS011;42245;42.058;24.700;2023-04-03T09:13:15;25.90;;;13.13;;
56343;SDS011;42245;42.058;24.700;2023-04-03T09:16:04;30.27;;;15.00;;
56343;SDS011;42245;42.058;24.700;2023-04-03T09:18:45;20.15;;;10.85;;
56343;SDS011;42245;42.058;24.700;2023-04-03T09:21:23;27.55;;;15.13;;
56343;SDS011;42245;42.058;24.700;2023-04-03T09:23:53;14.45;;;5.72;;
56343;SDS011;42245;42.058;24.700;2023-04-03T09:26:28;17.75;;;6.80;;
56343;SDS011;42245;42.058;24.700;2023-04-03T09:28:56;10.65;;;6.55;;
56343;SDS011;42245;42.058;24.700;2023-04-03T09:31:25;18.60;;;8.07;;
56343;SDS011;42245;42.058;24.700;2023-04-03T09:33:54;15.90;;;7.03;;
56343;SDS011;42245;42.058;24.700;2023-04-03T09:39:16;14.73;;;7.38;;
56343;SDS011;42245;42.058;24.700;2023-04-03T09:42:06;23.67;;;6.97;;
56343;SDS011;42245;42.058;24.700;2023-04-03T09:44:41;13.32;;;6.78;;
56343;SDS011;42245;42.058;24.700;2023-04-03T09:47:24;12.00;;;5.10;;
56343;SDS011;42245;42.058;24.700;2023-04-03T09:52:44;12.23;;;6.90;;
56343;SDS011;42245;42.058;24.700;2023-04-03T09:55:16;11.48;;;6.90;;
56343;SDS011;42245;42.058;24.700;2023-04-03T09:57:58;10.25;;;5.15;;
56343;SDS011;42245;42.058;24.700;2023-04-03T10:00:26;16.63;;;5.30;;
56343;SDS011;42245;42.058;24.700;2023-04-03T10:02:55;12.30;;;6.50;;
56343;SDS011;42245;42.058;24.700;2023-04-03T10:05:34;10.13;;;5.72;;
56343;SDS011;42245;42.058;24.700;2023-04-03T10:10:35;13.88;;;5.93;;
56343;SDS011;42245;42.058;24.700;2023-04-03T10:13:19;9.93;;;6.10;;
56343;SDS011;42245;42.058;24.700;2023-04-03T10:15:50;7.60;;;4.80;;
56343;SDS011;42245;42.058;24.700;2023-04-03T10:18:45;6.50;;;3.97;;
56343;SDS011;42245;42.058;24.700;2023-04-03T10:21:16;9.45;;;5.40;;
56343;SDS011;42245;42.058;24.700;2023-04-03T10:23:50;6.32;;;4.20;;
56343;SDS011;42245;42.058;24.700;2023-04-03T10:28:56;4.80;;;3.30;;
56343;SDS011;42245;42.058;24.700;2023-04-03T10:31:32;4.43;;;2.97;;
56343;SDS011;42245;42.058;24.700;2023-04-03T10:36:51;4.57;;;2.70;;
56343;SDS011;42245;42.058;24.700;2023-04-03T10:42:28;8.43;;;2.97;;
56343;SDS011;42245;42.058;24.700;2023-04-03T10:47:54;3.63;;;2.50;;
56343;SDS011;42245;42.058;24.700;2023-04-03T10:50:28;7.60;;;4.85;;
56343;SDS011;42245;42.058;24.700;2023-04-03T10:53:01;4.25;;;3.13;;
56343;SDS011;42245;42.058;24.700;2023-04-03T11:01:50;3.45;;;2.10;;
56343;SDS011;42245;42.058;24.700;2023-04-03T11:04:17;2.47;;;2.05;;
56343;SDS011;42245;42.058;24.700;2023-04-03T11:06:46;5.97;;;2.63;;
56343;SDS011;42245;42.058;24.700;2023-04-03T11:12:01;2.47;;;1.92;;
56343;SDS011;42245;42.058;24.700;2023-04-03T11:17:19;6.68;;;2.17;;
56343;SDS011;42245;42.058;24.700;2023-04-03T11:22:36;3.53;;;2.38;;
56343;SDS011;42245;42.058;24.700;2023-04-03T11:27:43;4.22;;;2.80;;
56343;SDS011;42245;42.058;24.700;2023-04-03T11:30:21;4.75;;;3.05;;
56343;SDS011;42245;42.058;24.700;2023-04-03T11:36:39;5.38;;;3.30;;
56343;SDS011;42245;42.058;24.700;2023-04-03T11:38:49;4.65;;;3.35;;
56343;SDS011;42245;42.058;24.700;2023-04-03T11:41:23;5.10;;;3.15;;
56343;SDS011;42245;42.058;24.700;2023-04-03T11:43:56;6.70;;;3.00;;
56343;SDS011;42245;42.058;24.700;2023-04-03T11:46:48;5.22;;;3.30;;
56343;SDS011;42245;42.058;24.700;2023-04-03T12:05:51;9.10;;;6.95;;
56343;SDS011;42245;42.058;24.700;2023-04-03T12:16:06;9.18;;;4.60;;
56343;SDS011;42245;42.058;24.700;2023-04-03T12:24:01;6.00;;;4.22;;
56343;SDS011;42245;42.058;24.700;2023-04-03T12:29:23;9.02;;;5.63;;
56343;SDS011;42245;42.058;24.700;2023-04-03T12:45:30;12.07;;;8.23;;
56343;SDS011;42245;42.058;24.700;2023-04-03T12:48:08;12.13;;;7.97;;
56343;SDS011;42245;42.058;24.700;2023-04-03T12:50:39;19.83;;;14.05;;
56343;SDS011;42245;42.058;24.700;2023-04-03T12:53:10;28.83;;;17.65;;
56343;SDS011;42245;42.058;24.700;2023-04-03T12:55:37;7.65;;;5.75;;
56343;SDS011;42245;42.058;24.700;2023-04-03T12:58:22;9.10;;;6.00;;
56343;SDS011;42245;42.058;24.700;2023-04-03T13:01:02;8.73;;;6.38;;
56343;SDS011;42245;42.058;24.700;2023-04-03T13:03:29;9.45;;;6.53;;
56343;SDS011;42245;42.058;24.700;2023-04-03T13:05:57;11.25;;;7.20;;
56343;SDS011;42245;42.058;24.700;2023-04-03T13:08:25;74.15;;;49.30;;
56343;SDS011;42245;42.058;24.700;2023-04-03T13:10:55;13.43;;;8.20;;
56343;SDS011;42245;42.058;24.700;2023-04-03T13:13:23;10.30;;;7.60;;
56343;SDS011;42245;42.058;24.700;2023-04-03T13:15:49;12.32;;;7.60;;
56343;SDS011;42245;42.058;24.700;2023-04-03T13:18:22;12.07;;;8.68;;
56343;SDS011;42245;42.058;24.700;2023-04-03T13:20:48;25.55;;;15.43;;
56343;SDS011;42245;42.058;24.700;2023-04-03T13:23:14;25.98;;;15.40;;
56343;SDS011;42245;42.058;24.700;2023-04-03T13:25:43;32.13;;;17.35;;
56343;SDS011;42245;42.058;24.700;2023-04-03T13:28:15;20.98;;;12.00;;
56343;SDS011;42245;42.058;24.700;2023-04-03T13:30:55;19.92;;;13.35;;
56343;SDS011;42245;42.058;24.700;2023-04-03T13:33:26;16.83;;;11.82;;
56343;SDS011;42245;42.058;24.700;2023-04-03T13:35:58;34.55;;;26.70;;
56343;SDS011;42245;42.058;24.700;2023-04-03T13:38:29;28.00;;;17.70;;
56343;SDS011;42245;42.058;24.700;2023-04-03T13:41:20;24.25;;;14.40;;
56343;SDS011;42245;42.058;24.700;2023-04-03T13:43:48;18.02;;;12.68;;
56343;SDS011;42245;42.058;24.700;2023-04-03T13:48:40;14.63;;;10.57;;
56343;SDS011;42245;42.058;24.700;2023-04-03T13:53:41;18.83;;;10.82;;
56343;SDS011;42245;42.058;24.700;2023-04-03T13:56:26;17.40;;;12.60;;
56343;SDS011;42245;42.058;24.700;2023-04-03T14:01:33;15.75;;;10.85;;
56343;SDS011;42245;42.058;24.700;2023-04-03T14:04:11;17.13;;;9.93;;
56343;SDS011;42245;42.058;24.700;2023-04-03T14:06:42;16.98;;;12.30;;
56343;SDS011;42245;42.058;24.700;2023-04-03T14:09:07;17.15;;;13.20;;
56343;SDS011;42245;42.058;24.700;2023-04-03T14:11:33;25.55;;;13.32;;
56343;SDS011;42245;42.058;24.700;2023-04-03T14:14:00;21.65;;;13.30;;
56343;SDS011;42245;42.058;24.700;2023-04-03T14:16:30;24.05;;;17.38;;
56343;SDS011;42245;42.058;24.700;2023-04-03T14:18:57;28.05;;;16.52;;
56343;SDS011;42245;42.058;24.700;2023-04-03T14:21:23;19.50;;;14.98;;
56343;SDS011;42245;42.058;24.700;2023-04-03T14:23:49;25.90;;;15.90;;
56343;SDS011;42245;42.058;24.700;2023-04-03T14:26:18;83.57;;;41.88;;
56343;SDS011;42245;42.058;24.700;2023-04-03T14:28:46;52.45;;;27.10;;
56343;SDS011;42245;42.058;24.700;2023-04-03T14:31:14;29.77;;;17.30;;
56343;SDS011;42245;42.058;24.700;2023-04-03T14:33:40;34.17;;;21.90;;
56343;SDS011;42245;42.058;24.700;2023-04-03T14:36:25;28.90;;;19.88;;
56343;SDS011;42245;42.058;24.700;2023-04-03T14:38:52;30.27;;;20.20;;
56343;SDS011;42245;42.058;24.700;2023-04-03T14:41:19;45.13;;;26.77;;
56343;SDS011;42245;42.058;24.700;2023-04-03T14:43:47;84.43;;;53.22;;
56343;SDS011;42245;42.058;24.700;2023-04-03T14:46:24;75.70;;;44.40;;
56343;SDS011;42245;42.058;24.700;2023-04-03T14:48:52;70.95;;;43.10;;
56343;SDS011;42245;42.058;24.700;2023-04-03T14:51:17;28.05;;;21.30;;
56343;SDS011;42245;42.058;24.700;2023-04-03T14:53:43;30.20;;;19.55;;
56343;SDS011;42245;42.058;24.700;2023-04-03T14:56:19;31.88;;;22.00;;
56343;SDS011;42245;42.058;24.700;2023-04-03T14:58:49;36.70;;;24.45;;
56343;SDS011;42245;42.058;24.700;2023-04-03T15:01:16;39.28;;;26.58;;
56343;SDS011;42245;42.058;24.700;2023-04-03T15:03:42;41.92;;;25.77;;
56343;SDS011;42245;42.058;24.700;2023-04-03T15:06:09;35.00;;;23.98;;
56343;SDS011;42245;42.058;24.700;2023-04-03T15:08:36;40.72;;;27.25;;
56343;SDS011;42245;42.058;24.700;2023-04-03T15:11:02;36.92;;;23.35;;
56343;SDS011;42245;42.058;24.700;2023-04-03T15:13:27;28.38;;;16.55;;
56343;SDS011;42245;42.058;24.700;2023-04-03T15:15:53;22.30;;;14.50;;
56343;SDS011;42245;42.058;24.700;2023-04-03T15:18:20;28.02;;;17.15;;
56343;SDS011;42245;42.058;24.700;2023-04-03T15:20:47;28.63;;;18.85;;
56343;SDS011;42245;42.058;24.700;2023-04-03T15:23:16;33.55;;;20.23;;
56343;SDS011;42245;42.058;24.700;2023-04-03T15:25:45;29.92;;;19.58;;
56343;SDS011;42245;42.058;24.700;2023-04-03T15:28:18;29.38;;;16.80;;
56343;SDS011;42245;42.058;24.700;2023-04-03T15:30:45;33.00;;;20.58;;
56343;SDS011;42245;42.058;24.700;2023-04-03T15:33:10;32.00;;;18.30;;
56343;SDS011;42245;42.058;24.700;2023-04-03T15:35:36;34.75;;;21.05;;
56343;SDS011;42245;42.058;24.700;2023-04-03T15:38:01;38.13;;;22.95;;
56343;SDS011;42245;42.058;24.700;2023-04-03T15:40:26;40.60;;;25.27;;
56343;SDS011;42245;42.058;24.700;2023-04-03T15:42:52;38.80;;;24.13;;
56343;SDS011;42245;42.058;24.700;2023-04-03T15:45:17;42.53;;;22.67;;
56343;SDS011;42245;42.058;24.700;2023-04-03T15:47:43;43.77;;;28.30;;
56343;SDS011;42245;42.058;24.700;2023-04-03T15:50:08;46.38;;;26.33;;
56343;SDS011;42245;42.058;24.700;2023-04-03T15:52:34;38.65;;;21.58;;
56343;SDS011;42245;42.058;24.700;2023-04-03T15:55:00;30.30;;;18.42;;
56343;SDS011;42245;42.058;24.700;2023-04-03T15:57:26;28.13;;;18.65;;
56343;SDS011;42245;42.058;24.700;2023-04-03T15:59:52;29.83;;;17.75;;
56343;SDS011;42245;42.058;24.700;2023-04-03T16:02:17;28.60;;;17.50;;
56343;SDS011;42245;42.058;24.700;2023-04-03T16:04:43;35.35;;;17.95;;
56343;SDS011;42245;42.058;24.700;2023-04-03T16:07:09;88.95;;;21.58;;
56343;SDS011;42245;42.058;24.700;2023-04-03T16:09:34;49.42;;;17.95;;
56343;SDS011;42245;42.058;24.700;2023-04-03T16:12:00;29.33;;;17.52;;
56343;SDS011;42245;42.058;24.700;2023-04-03T16:14:27;42.90;;;24.05;;
56343;SDS011;42245;42.058;24.700;2023-04-03T16:16:54;28.13;;;16.92;;
56343;SDS011;42245;42.058;24.700;2023-04-03T16:19:20;24.60;;;14.32;;
56343;SDS011;42245;42.058;24.700;2023-04-03T16:21:46;22.02;;;14.15;;
56343;SDS011;42245;42.058;24.700;2023-04-03T16:24:12;28.00;;;15.30;;
56343;SDS011;42245;42.058;24.700;2023-04-03T16:26:37;24.75;;;15.07;;